createdAt,value
2023-04-06T00:00:12.735Z,101805.50
2023-04-06T00:03:04.741Z,101815.97
2023-04-06T00:05:32.038Z,101809.13
2023-04-06T00:07:59.582Z,101798.94
2023-04-06T00:10:26.642Z,101806.88
2023-04-06T00:12:53.959Z,101800.91
2023-04-06T00:15:21.502Z,101801.00
2023-04-06T00:17:48.492Z,101794.97
2023-04-06T00:20:15.800Z,101799.50
2023-04-06T00:22:43.271Z,101802.03
2023-04-06T00:25:11.368Z,101794.97
2023-04-06T00:27:38.850Z,101792.16
2023-04-06T00:30:06.528Z,101786.94
2023-04-06T00:32:33.527Z,101784.41
2023-04-06T00:35:00.591Z,101775.66
2023-04-06T00:37:28.278Z,101781.75
2023-04-06T00:39:55.385Z,101777.34
2023-04-06T00:42:27.094Z,101784.28
2023-04-06T00:44:58.385Z,101778.06
2023-04-06T00:47:28.790Z,101777.09
2023-04-06T00:49:56.536Z,101780.44
2023-04-06T00:52:23.849Z,101787.28
2023-04-06T00:54:51.829Z,101781.25
2023-04-06T00:57:21.261Z,101776.88
2023-04-06T00:59:54.550Z,101783.94
2023-04-06T01:02:21.946Z,101781.16
2023-04-06T01:04:53.008Z,101774.28
2023-04-06T01:07:36.322Z,101776.69
2023-04-06T01:10:09.014Z,101768.66
2023-04-06T01:12:38.572Z,101776.31
2023-04-06T01:15:11.714Z,101763.72
2023-04-06T01:17:41.798Z,101765.97
2023-04-06T01:20:13.674Z,101768.50
2023-04-06T01:22:40.818Z,101765.00
2023-04-06T01:25:08.411Z,101754.00
2023-04-06T01:27:42.744Z,101752.22
2023-04-06T01:30:30.099Z,101764.25
2023-04-06T01:33:01.575Z,101753.13
2023-04-06T01:36:04.646Z,101754.19
2023-04-06T01:38:32.176Z,101749.91
2023-04-06T01:40:59.142Z,101764.75
2023-04-06T01:43:30.695Z,101748.25
2023-04-06T01:46:05.765Z,101736.22
2023-04-06T01:48:36.425Z,101730.34
2023-04-06T01:51:12.738Z,101728.41
2023-04-06T01:53:47.763Z,101712.75
2023-04-06T01:56:14.932Z,101711.03
2023-04-06T01:58:47.850Z,101698.69
2023-04-06T02:01:17.210Z,101705.91
2023-04-06T02:03:52.122Z,101703.16
2023-04-06T02:06:20.253Z,101711.84
2023-04-06T02:08:47.620Z,101709.41
2023-04-06T02:11:14.876Z,101714.44
2023-04-06T02:13:46.938Z,101715.13
2023-04-06T02:16:16.054Z,101711.69
2023-04-06T02:18:45.562Z,101713.22
2023-04-06T02:21:12.758Z,101701.72
2023-04-06T02:23:39.723Z,101691.38
2023-04-06T02:26:06.745Z,101695.28
2023-04-06T02:28:33.953Z,101695.44
2023-04-06T02:31:01.965Z,101694.19
2023-04-06T02:33:28.996Z,101686.66
2023-04-06T02:35:56.312Z,101697.81
2023-04-06T02:38:23.621Z,101696.84
2023-04-06T02:40:52.733Z,101690.75
2023-04-06T02:43:23.036Z,101654.28
2023-04-06T02:45:54.361Z,101677.91
2023-04-06T02:48:22.999Z,101675.53
2023-04-06T02:50:49.962Z,101667.81
2023-04-06T02:53:16.962Z,101671.88
2023-04-06T02:55:44.039Z,101666.75
2023-04-06T02:58:11.102Z,101667.56
2023-04-06T03:00:45.141Z,101661.50
2023-04-06T03:03:12.852Z,101664.25
2023-04-06T03:05:41.398Z,101657.41
2023-04-06T03:08:09.028Z,101660.94
2023-04-06T03:10:41.875Z,101667.31
2023-04-06T03:13:09.145Z,101666.47
2023-04-06T03:16:06.252Z,101669.78
2023-04-06T03:18:34.184Z,101671.47
2023-04-06T03:21:04.270Z,101677.50
2023-04-06T03:23:52.329Z,101685.69
2023-04-06T03:26:19.566Z,101698.69
2023-04-06T03:28:46.475Z,101691.84
2023-04-06T03:31:13.917Z,101696.56
2023-04-06T03:33:53.930Z,101699.34
2023-04-06T03:36:26.608Z,101695.66
2023-04-06T03:38:55.940Z,101699.81
2023-04-06T03:41:23.185Z,101700.28
2023-04-06T03:43:59.898Z,101703.63
2023-04-06T03:46:27.150Z,101711.19
2023-04-06T03:48:57.346Z,101710.16
2023-04-06T03:51:25.079Z,101712.59
2023-04-06T03:53:58.260Z,101718.69
2023-04-06T03:56:33.291Z,101712.91
2023-04-06T03:59:02.071Z,101712.75
2023-04-06T04:01:38.508Z,101724.78
2023-04-06T04:07:03.327Z,101728.34
2023-04-06T04:09:41.148Z,101731.03
2023-04-06T04:12:12.934Z,101739.91
2023-04-06T04:14:43.561Z,101735.75
2023-04-06T04:17:11.871Z,101736.03
2023-04-06T04:19:46.657Z,101732.69
2023-04-06T04:22:16.371Z,101744.25
2023-04-06T04:24:44.491Z,101746.94
2023-04-06T04:27:11.670Z,101749.53
2023-04-06T04:29:40.506Z,101754.88
2023-04-06T04:32:10.319Z,101760.41
2023-04-06T04:34:37.379Z,101757.03
2023-04-06T04:37:06.501Z,101751.75
2023-04-06T04:39:47.076Z,101758.66
2023-04-06T04:42:14.352Z,101766.44
2023-04-06T04:44:46.739Z,101766.59
2023-04-06T04:47:16.813Z,101769.50
2023-04-06T04:49:50.106Z,101762.59
2023-04-06T04:52:22.955Z,101759.03
2023-04-06T04:55:08.860Z,101731.28
2023-04-06T04:57:36.234Z,101775.38
2023-04-06T05:00:05.951Z,101771.13
2023-04-06T05:02:34.979Z,101770.41
2023-04-06T05:05:18.859Z,101759.84
2023-04-06T05:07:47.062Z,101761.63
2023-04-06T05:10:37.805Z,101763.53
2023-04-06T05:13:05.415Z,101786.19
2023-04-06T05:15:32.516Z,101784.50
2023-04-06T05:18:07.832Z,101777.44
2023-04-06T05:20:36.370Z,101774.91
2023-04-06T05:23:03.897Z,101774.72
2023-04-06T05:25:32.257Z,101771.72
2023-04-06T05:28:07.168Z,101765.34
2023-04-06T05:30:37.040Z,101761.53
2023-04-06T05:33:04.674Z,101764.78
2023-04-06T05:35:44.351Z,101766.63
2023-04-06T05:38:13.638Z,101778.66
2023-04-06T05:40:42.291Z,101789.47
2023-04-06T05:43:13.424Z,101790.16
2023-04-06T05:45:53.510Z,101789.63
2023-04-06T05:48:33.326Z,101787.31
2023-04-06T05:51:02.286Z,101782.03
2023-04-06T05:53:39.509Z,101781.75
2023-04-06T05:56:06.937Z,101788.50
2023-04-06T05:58:33.841Z,101791.81
2023-04-06T06:01:01.488Z,101800.41
2023-04-06T06:03:37.168Z,101809.84
2023-04-06T06:06:05.656Z,101814.88
2023-04-06T06:09:04.330Z,101817.47
2023-04-06T06:11:35.299Z,101820.16
2023-04-06T06:14:03.957Z,101823.66
2023-04-06T06:16:35.333Z,101827.13
2023-04-06T06:19:06.988Z,101827.50
2023-04-06T06:21:38.096Z,101834.75
2023-04-06T06:24:09.282Z,101841.38
2023-04-06T06:26:38.429Z,101842.78
2023-04-06T06:29:07.831Z,101838.78
2023-04-06T06:31:38.161Z,101842.47
2023-04-06T06:34:05.921Z,101846.28
2023-04-06T06:36:34.725Z,101845.94
2023-04-06T06:39:04.748Z,101848.00
2023-04-06T06:41:32.132Z,101838.03
2023-04-06T06:43:59.456Z,101843.63
2023-04-06T06:46:26.839Z,101844.88
2023-04-06T06:48:54.818Z,101847.75
2023-04-06T06:51:22.101Z,101849.03
2023-04-06T06:53:49.298Z,101850.19
2023-04-06T06:56:25.369Z,101858.34
2023-04-06T06:58:54.456Z,101847.41
2023-04-06T07:01:21.591Z,101850.78
2023-04-06T07:03:49.789Z,101846.06
2023-04-06T07:06:17.321Z,101838.72
2023-04-06T07:08:44.338Z,101835.69
2023-04-06T07:11:11.350Z,101831.03
2023-04-06T07:13:38.467Z,101835.88
2023-04-06T07:16:05.824Z,101839.88
2023-04-06T07:18:42.641Z,101841.09
2023-04-06T07:21:11.018Z,101840.59
2023-04-06T07:23:38.087Z,101844.47
2023-04-06T07:26:06.089Z,101842.31
2023-04-06T07:28:33.070Z,101834.91
2023-04-06T07:31:02.159Z,101834.41
2023-04-06T07:33:31.165Z,101834.06
2023-04-06T07:36:00.272Z,101835.19
2023-04-06T07:38:28.103Z,101834.69
2023-04-06T07:40:55.669Z,101841.16
2023-04-06T07:43:23.011Z,101842.44
2023-04-06T07:45:50.303Z,101840.38
2023-04-06T07:48:18.106Z,101828.50
2023-04-06T07:50:45.792Z,101837.50
2023-04-06T07:53:12.955Z,101835.97
2023-04-06T07:55:40.180Z,101832.91
2023-04-06T07:58:07.416Z,101834.81
2023-04-06T08:00:34.589Z,101835.97
2023-04-06T08:03:02.233Z,101826.59
2023-04-06T08:05:29.300Z,101822.41
2023-04-06T08:07:56.867Z,101829.69
2023-04-06T08:10:24.034Z,101832.38
2023-04-06T08:12:51.165Z,101820.31
2023-04-06T08:15:19.438Z,101822.94
2023-04-06T08:17:46.502Z,101816.41
2023-04-06T08:20:13.569Z,101812.53
2023-04-06T08:22:40.474Z,101801.50
2023-04-06T08:25:07.627Z,101805.47
2023-04-06T08:27:34.604Z,101804.38
2023-04-06T08:30:01.701Z,101791.75
2023-04-06T08:32:28.636Z,101798.41
2023-04-06T08:34:56.649Z,101797.94
2023-04-06T08:37:24.280Z,101796.38
2023-04-06T08:39:51.576Z,101797.72
2023-04-06T08:42:21.069Z,101796.66
2023-04-06T08:44:49.957Z,101801.09
2023-04-06T08:47:17.082Z,101804.97
2023-04-06T08:49:45.412Z,101801.97
2023-04-06T08:52:12.566Z,101801.28
2023-04-06T08:54:39.939Z,101808.72
2023-04-06T08:57:08.203Z,101813.19
2023-04-06T08:59:35.854Z,101803.09
2023-04-06T09:02:04.627Z,101810.34
2023-04-06T09:04:33.062Z,101802.78
2023-04-06T09:07:00.394Z,101804.91
2023-04-06T09:09:27.389Z,101805.22
2023-04-06T09:11:54.579Z,101811.53
2023-04-06T09:14:38.334Z,101816.16
2023-04-06T09:17:05.960Z,101813.66
2023-04-06T09:19:32.943Z,101814.66
2023-04-06T09:22:08.577Z,101811.56
2023-04-06T09:24:52.900Z,101818.84
2023-04-06T09:27:31.455Z,101814.56
2023-04-06T09:30:06.694Z,101816.53
2023-04-06T09:32:33.654Z,101814.28
2023-04-06T09:35:07.986Z,101814.47
2023-04-06T09:37:36.434Z,101823.25
2023-04-06T09:40:04.676Z,101827.75
2023-04-06T09:42:31.991Z,101828.59
2023-04-06T09:44:59.065Z,101833.84
2023-04-06T09:47:29.549Z,101827.84
2023-04-06T09:50:00.551Z,101832.28
2023-04-06T09:52:28.800Z,101832.47
2023-04-06T09:54:57.256Z,101833.50
2023-04-06T09:57:30.494Z,101831.69
2023-04-06T10:00:14.550Z,101835.41
2023-04-06T10:03:01.043Z,101839.16
2023-04-06T10:05:36.920Z,101844.66
2023-04-06T10:08:13.374Z,101836.75
2023-04-06T10:10:40.856Z,101835.06
2023-04-06T10:13:08.665Z,101833.28
2023-04-06T10:15:36.760Z,101827.88
2023-04-06T10:18:04.842Z,101830.59
2023-04-06T10:20:34.924Z,101824.88
2023-04-06T10:23:17.603Z,101816.16
2023-04-06T10:25:57.880Z,101831.28
2023-04-06T10:28:26.755Z,101827.75
2023-04-06T10:31:00.601Z,101826.88
2023-04-06T10:33:28.121Z,101841.19
2023-04-06T10:35:57.029Z,101837.69
2023-04-06T10:38:40.439Z,101835.81
2023-04-06T10:41:09.978Z,101821.66
2023-04-06T10:43:38.194Z,101825.41
2023-04-06T10:46:06.238Z,101819.41
2023-04-06T10:48:41.626Z,101818.69
2023-04-06T10:51:09.744Z,101804.59
2023-04-06T10:53:36.810Z,101815.25
2023-04-06T10:56:03.870Z,101815.25
2023-04-06T10:58:32.053Z,101824.19
2023-04-06T11:01:01.752Z,101823.19
2023-04-06T11:03:29.050Z,101823.19
2023-04-06T11:05:56.376Z,101820.63
2023-04-06T11:08:33.560Z,101825.97
2023-04-06T11:11:17.330Z,101825.13
2023-04-06T11:13:45.442Z,101827.97
2023-04-06T11:16:16.502Z,101827.97
2023-04-06T11:18:49.504Z,101829.84
2023-04-06T11:21:16.570Z,101822.88
2023-04-06T11:23:43.853Z,101826.34
2023-04-06T11:26:15.190Z,101824.69
2023-04-06T11:28:43.602Z,101822.03
2023-04-06T11:31:12.062Z,101821.22
2023-04-06T11:33:42.486Z,101820.41
2023-04-06T11:36:09.655Z,101816.88
2023-04-06T11:38:40.122Z,101817.75
2023-04-06T11:41:07.476Z,101810.69
2023-04-06T11:43:34.539Z,101807.16
2023-04-06T11:46:03.566Z,101799.28
2023-04-06T11:48:31.147Z,101803.69
2023-04-06T11:51:00.027Z,101805.44
2023-04-06T11:53:27.717Z,101796.69
2023-04-06T11:55:54.745Z,101794.94
2023-04-06T11:58:21.708Z,101797.59
2023-04-06T12:00:48.702Z,101795.81
2023-04-06T12:03:15.833Z,101793.09
2023-04-06T12:05:47.395Z,101793.09
2023-04-06T12:08:14.544Z,101788.69
2023-04-06T12:10:41.506Z,101789.53
2023-04-06T12:13:08.636Z,101786.88
2023-04-06T12:15:35.757Z,101784.28
2023-04-06T12:18:02.860Z,101782.47
2023-04-06T12:20:29.967Z,101781.53
2023-04-06T12:22:57.128Z,101774.50
2023-04-06T12:25:24.156Z,101778.00
2023-04-06T12:27:51.522Z,101770.06
2023-04-06T12:30:18.626Z,101773.53
2023-04-06T12:32:45.675Z,101770.06
2023-04-06T12:35:14.241Z,101780.63
2023-04-06T12:37:41.481Z,101765.50
2023-04-06T12:40:08.827Z,101770.84
2023-04-06T12:42:36.032Z,101761.19
2023-04-06T12:45:03.082Z,101761.16
2023-04-06T12:47:30.131Z,101751.41
2023-04-06T12:49:57.780Z,101758.53
2023-04-06T12:52:26.034Z,101752.28
2023-04-06T12:54:54.067Z,101745.22
2023-04-06T12:57:21.507Z,101756.72
2023-04-06T12:59:48.660Z,101746.16
2023-04-06T13:02:17.682Z,101756.81
2023-04-06T13:04:44.895Z,101747.19
2023-04-06T13:07:16.051Z,101740.91
2023-04-06T13:09:43.446Z,101746.19
2023-04-06T13:12:10.687Z,101751.41
2023-04-06T13:14:37.726Z,101754.00
2023-04-06T13:17:04.767Z,101759.34
2023-04-06T13:19:33.314Z,101755.06
2023-04-06T13:22:00.472Z,101757.78
2023-04-06T13:24:28.548Z,101766.63
2023-04-06T13:26:55.928Z,101756.88
2023-04-06T13:29:23.050Z,101755.97
2023-04-06T13:31:49.966Z,101753.31
2023-04-06T13:34:17.238Z,101763.88
2023-04-06T13:36:45.373Z,101760.34
2023-04-06T13:39:12.585Z,101757.78
2023-04-06T13:41:39.948Z,101758.63
2023-04-06T13:44:07.201Z,101753.28
2023-04-06T13:46:34.192Z,101752.34
2023-04-06T13:49:01.243Z,101752.34
2023-04-06T13:51:29.499Z,101744.31
2023-04-06T13:53:56.772Z,101742.44
2023-04-06T13:56:29.575Z,101745.09
2023-04-06T13:58:58.086Z,101750.47
2023-04-06T14:01:26.310Z,101740.66
2023-04-06T14:03:53.391Z,101736.31
2023-04-06T14:06:31.394Z,101744.38
2023-04-06T14:09:00.604Z,101732.03
2023-04-06T14:11:28.734Z,101731.13
2023-04-06T14:13:58.014Z,101733.72
2023-04-06T14:16:25.938Z,101731.06
2023-04-06T14:18:53.465Z,101723.16
2023-04-06T14:21:21.668Z,101721.28
2023-04-06T14:23:49.875Z,101720.31
2023-04-06T14:26:17.849Z,101716.03
2023-04-06T14:28:44.871Z,101713.25
2023-04-06T14:31:16.496Z,101715.91
2023-04-06T14:33:44.224Z,101707.03
2023-04-06T14:36:12.414Z,101705.34
2023-04-06T14:38:40.649Z,101717.81
2023-04-06T14:41:09.250Z,101715.91
2023-04-06T14:43:36.252Z,101713.25
2023-04-06T14:46:03.479Z,101707.06
2023-04-06T14:48:30.724Z,101698.31
2023-04-06T14:50:57.844Z,101694.66
2023-04-06T14:53:25.133Z,101697.41
2023-04-06T14:55:52.561Z,101705.38
2023-04-06T14:58:19.973Z,101705.44
2023-04-06T15:00:47.196Z,101698.34
2023-04-06T15:03:14.423Z,101694.81
2023-04-06T15:05:41.529Z,101696.63
2023-04-06T15:08:10.436Z,101698.41
2023-04-06T15:10:37.711Z,101702.78
2023-04-06T15:13:05.121Z,101704.53
2023-04-06T15:15:32.221Z,101704.56
2023-04-06T15:17:59.695Z,101700.19
2023-04-06T15:20:27.500Z,101703.72
2023-04-06T15:22:54.492Z,101698.47
2023-04-06T15:25:21.530Z,101694.97
2023-04-06T15:27:48.538Z,101696.75
2023-04-06T15:30:15.800Z,101683.47
2023-04-06T15:32:53.086Z,101686.09
2023-04-06T15:35:21.474Z,101687.00
2023-04-06T15:37:48.868Z,101692.28
2023-04-06T15:40:16.962Z,101686.16
2023-04-06T15:42:44.288Z,101692.34
2023-04-06T15:45:11.866Z,101687.09
2023-04-06T15:47:39.283Z,101691.50
2023-04-06T15:50:06.660Z,101693.28
2023-04-06T15:52:33.646Z,101695.03
2023-04-06T15:55:00.634Z,101694.16
2023-04-06T15:57:27.643Z,101699.50
2023-04-06T15:59:56.373Z,101708.34
2023-04-06T16:02:24.097Z,101699.50
2023-04-06T16:05:05.050Z,101706.53
2023-04-06T16:07:33.121Z,101701.22
2023-04-06T16:10:01.342Z,101709.25
2023-04-06T16:12:29.217Z,101705.75
2023-04-06T16:14:56.285Z,101703.97
2023-04-06T16:17:23.379Z,101710.19
2023-04-06T16:19:50.425Z,101704.84
2023-04-06T16:22:18.530Z,101704.00
2023-04-06T16:24:46.062Z,101708.41
2023-04-06T16:27:13.877Z,101706.66
2023-04-06T16:29:41.449Z,101710.19
2023-04-06T16:32:11.311Z,101710.16
2023-04-06T16:34:38.319Z,101711.94
2023-04-06T16:37:05.245Z,101708.41
2023-04-06T16:39:32.328Z,101698.69
2023-04-06T16:42:00.122Z,101697.81
2023-04-06T16:44:29.068Z,101702.22
2023-04-06T16:46:56.734Z,101696.00
2023-04-06T16:49:24.426Z,101704.78
2023-04-06T16:51:52.114Z,101706.53
2023-04-06T16:54:19.210Z,101707.31
2023-04-06T16:56:46.104Z,101706.44
2023-04-06T16:59:13.130Z,101707.22
2023-04-06T17:01:40.247Z,101715.13
2023-04-06T17:04:07.502Z,101716.81
2023-04-06T17:06:34.524Z,101716.78
2023-04-06T17:09:01.569Z,101715.81
2023-04-06T17:11:39.413Z,101716.63
2023-04-06T17:14:12.833Z,101720.09
2023-04-06T17:16:39.846Z,101728.88
2023-04-06T17:19:07.377Z,101737.50
2023-04-06T17:21:34.408Z,101737.41
2023-04-06T17:24:01.434Z,101731.16
2023-04-06T17:26:28.525Z,101734.47
2023-04-06T17:28:55.629Z,101740.50
2023-04-06T17:31:22.896Z,101743.91
2023-04-06T17:33:50.568Z,101740.03
2023-04-06T17:36:17.827Z,101747.13
2023-04-06T17:38:46.851Z,101739.84
2023-04-06T17:41:14.028Z,101744.16
2023-04-06T17:43:41.193Z,101737.03
2023-04-06T17:46:16.628Z,101736.94
2023-04-06T17:48:44.678Z,101734.09
2023-04-06T17:51:14.201Z,101734.03
2023-04-06T17:53:41.691Z,101744.53
2023-04-06T17:56:08.621Z,101746.16
2023-04-06T17:58:35.758Z,101742.19
2023-04-06T18:01:07.606Z,101745.81
2023-04-06T18:03:35.275Z,101758.78
2023-04-06T18:06:16.943Z,101750.44
2023-04-06T18:08:50.745Z,101750.38
2023-04-06T18:11:20.096Z,101745.72
2023-04-06T18:13:47.918Z,101742.13
2023-04-06T18:16:16.545Z,101745.38
2023-04-06T18:18:43.552Z,101752.25
2023-04-06T18:21:13.450Z,101759.06
2023-04-06T18:23:40.755Z,101753.50
2023-04-06T18:26:14.410Z,101756.00
2023-04-06T18:28:44.981Z,101761.00
2023-04-06T18:31:13.564Z,101764.13
2023-04-06T18:33:45.514Z,101760.44
2023-04-06T18:36:14.610Z,101760.28
2023-04-06T18:38:45.578Z,101759.03
2023-04-06T18:41:12.544Z,101752.69
2023-04-06T18:43:40.546Z,101751.63
2023-04-06T18:46:13.774Z,101760.31
2023-04-06T18:48:41.440Z,101769.56
2023-04-06T18:51:08.663Z,101772.81
2023-04-06T18:53:37.277Z,101779.50
2023-04-06T18:56:13.120Z,101785.50
2023-04-06T18:58:43.545Z,101780.19
2023-04-06T19:01:11.080Z,101774.75
2023-04-06T19:03:39.148Z,101774.41
2023-04-06T19:06:07.947Z,101772.41
2023-04-06T19:08:34.979Z,101770.63
2023-04-06T19:11:07.267Z,101780.81
2023-04-06T19:13:35.097Z,101786.63
2023-04-06T19:16:11.954Z,101783.72
2023-04-06T19:18:42.954Z,101773.09
2023-04-06T19:21:17.332Z,101782.38
2023-04-06T19:23:45.364Z,101775.19
2023-04-06T19:26:14.149Z,101776.72
2023-04-06T19:28:42.140Z,101781.66
2023-04-06T19:31:17.510Z,101777.09
2023-04-06T19:33:45.219Z,101780.31
2023-04-06T19:36:12.704Z,101776.53
2023-04-06T19:38:40.032Z,101776.44
2023-04-06T19:41:07.128Z,101770.91
2023-04-06T19:43:34.172Z,101771.34
2023-04-06T19:46:03.418Z,101766.81
2023-04-06T19:48:31.135Z,101775.59
2023-04-06T19:50:58.200Z,101765.88
2023-04-06T19:53:25.434Z,101774.34
2023-04-06T19:55:52.629Z,101772.63
2023-04-06T19:58:22.577Z,101772.44
2023-04-06T20:00:49.799Z,101776.00
2023-04-06T20:03:17.033Z,101766.38
2023-04-06T20:05:44.207Z,101770.56
2023-04-06T20:08:15.145Z,101770.50
2023-04-06T20:10:43.003Z,101766.03
2023-04-06T20:13:10.107Z,101775.47
2023-04-06T20:15:37.105Z,101778.75
2023-04-06T20:18:04.216Z,101780.34
2023-04-06T20:20:31.479Z,101781.81
2023-04-06T20:22:58.591Z,101782.72
2023-04-06T20:25:25.795Z,101795.53
2023-04-06T20:27:53.650Z,101789.53
2023-04-06T20:30:20.562Z,101789.38
2023-04-06T20:32:47.663Z,101794.84
2023-04-06T20:35:14.590Z,101796.97
2023-04-06T20:37:42.055Z,101795.03
2023-04-06T20:40:09.471Z,101790.63
2023-04-06T20:42:37.458Z,101790.75
2023-04-06T20:45:04.965Z,101797.50
2023-04-06T20:47:32.771Z,101798.38
2023-04-06T20:50:00.334Z,101796.41
2023-04-06T20:52:27.850Z,101797.19
2023-04-06T20:54:55.052Z,101801.19
2023-04-06T20:57:22.563Z,101797.31
2023-04-06T20:59:49.688Z,101802.50
2023-04-06T21:02:17.062Z,101804.88
2023-04-06T21:04:44.684Z,101807.72
2023-04-06T21:07:11.782Z,101806.53
2023-04-06T21:09:39.557Z,101810.66
2023-04-06T21:12:06.963Z,101804.34
2023-04-06T21:14:34.012Z,101809.00
2023-04-06T21:17:01.184Z,101821.25
2023-04-06T21:19:28.388Z,101808.94
2023-04-06T21:21:56.160Z,101819.06
2023-04-06T21:24:26.168Z,101822.16
2023-04-06T21:26:53.546Z,101815.13
2023-04-06T21:29:20.505Z,101818.63
2023-04-06T21:31:47.577Z,101811.63
2023-04-06T21:34:14.768Z,101806.09
2023-04-06T21:36:42.385Z,101811.22
2023-04-06T21:39:09.480Z,101811.06
2023-04-06T21:41:36.658Z,101813.41
2023-04-06T21:44:03.688Z,101815.75
2023-04-06T21:46:30.873Z,101817.16
2023-04-06T21:48:58.015Z,101818.88
2023-04-06T21:51:25.251Z,101810.94
2023-04-06T21:53:52.627Z,101809.75
2023-04-06T21:56:20.896Z,101807.00
2023-04-06T21:58:48.492Z,101811.09
2023-04-06T22:01:15.642Z,101817.75
2023-04-06T22:03:42.842Z,101806.19
2023-04-06T22:06:10.041Z,101809.25
2023-04-06T22:08:37.216Z,101807.47
2023-04-06T22:11:09.135Z,101803.72
2023-04-06T22:13:41.438Z,101797.63
2023-04-06T22:16:08.639Z,101790.25
2023-04-06T22:18:38.680Z,101784.44
2023-04-06T22:21:10.346Z,101788.75
2023-04-06T22:23:42.551Z,101789.19
2023-04-06T22:26:10.922Z,101789.47
2023-04-06T22:28:38.070Z,101787.38
2023-04-06T22:31:05.146Z,101786.13
2023-04-06T22:33:34.716Z,101776.47
2023-04-06T22:36:01.876Z,101778.19
2023-04-06T22:38:28.926Z,101774.63
2023-04-06T22:40:56.588Z,101772.50
2023-04-06T22:43:23.611Z,101768.31
2023-04-06T22:45:50.657Z,101760.59
2023-04-06T22:48:19.733Z,101764.66
2023-04-06T22:50:46.733Z,101763.13
2023-04-06T22:53:13.728Z,101757.03
2023-04-06T22:55:41.316Z,101758.16
2023-04-06T22:58:08.307Z,101757.50
2023-04-06T23:00:35.178Z,101755.06
2023-04-06T23:03:02.344Z,101761.84
2023-04-06T23:05:29.441Z,101757.44
2023-04-06T23:07:56.573Z,101751.09
2023-04-06T23:10:23.630Z,101753.91
2023-04-06T23:12:50.659Z,101754.72
2023-04-06T23:15:17.610Z,101754.53
2023-04-06T23:17:44.633Z,101750.00
2023-04-06T23:20:11.674Z,101746.31
2023-04-06T23:22:39.063Z,101749.03
2023-04-06T23:25:07.793Z,101746.16
2023-04-06T23:27:34.790Z,101746.72
2023-04-06T23:30:02.651Z,101748.38
2023-04-06T23:32:31.323Z,101739.63
2023-04-06T23:35:02.029Z,101743.84
2023-04-06T23:37:29.124Z,101740.00
2023-04-06T23:39:56.419Z,101737.91
2023-04-06T23:42:28.960Z,101735.31
2023-04-06T23:44:56.796Z,101734.19
2023-04-06T23:47:23.974Z,101732.88
2023-04-06T23:49:51.157Z,101733.59
2023-04-06T23:52:18.059Z,101725.81
2023-04-06T23:54:45.102Z,101729.06
2023-04-06T23:57:11.988Z,101722.75
2023-04-06T23:59:38.975Z,101726.09
